createdAt,value
2022-08-12T00:00:48.972Z,9.757479
2022-08-12T00:02:03.610Z,9.757568
2022-08-12T00:02:49.997Z,9.757697
2022-08-12T00:03:48.923Z,9.757743
2022-08-12T00:04:49.925Z,9.757631
2022-08-12T00:06:00.452Z,9.757570
2022-08-12T00:06:49.932Z,9.757620
2022-08-12T00:07:48.895Z,9.757616
2022-08-12T00:08:48.883Z,9.757459
2022-08-12T00:09:49.371Z,9.757659
2022-08-12T00:10:48.870Z,9.757697
2022-08-12T00:11:49.090Z,9.757878
2022-08-12T00:12:49.084Z,9.757683
2022-08-12T00:13:49.066Z,9.757569
2022-08-12T00:14:49.097Z,9.757629
2022-08-12T00:15:49.004Z,9.757592
2022-08-12T00:16:49.112Z,9.757702
2022-08-12T00:17:49.019Z,9.757847
2022-08-12T00:18:49.024Z,9.757732
2022-08-12T00:19:48.966Z,9.757983
2022-08-12T00:20:49.035Z,9.757685
2022-08-12T00:21:48.802Z,9.757401
2022-08-12T00:22:58.804Z,9.757071
2022-08-12T00:23:49.758Z,9.757282
2022-08-12T00:24:48.771Z,9.757683
2022-08-12T00:26:18.992Z,9.758022
2022-08-12T00:26:49.757Z,9.758191
2022-08-12T00:27:48.729Z,9.757849
2022-08-12T00:28:48.715Z,9.757837
2022-08-12T00:29:49.706Z,9.758023
2022-08-12T00:30:48.699Z,9.757986
2022-08-12T00:31:48.728Z,9.757525
2022-08-12T00:32:54.919Z,9.757463
2022-08-12T00:33:52.483Z,9.757516
2022-08-12T00:34:49.485Z,9.757658
2022-08-12T00:35:48.646Z,9.757594
2022-08-12T00:36:50.151Z,9.757458
2022-08-12T00:37:48.661Z,9.757524
2022-08-12T00:38:48.642Z,9.757618
2022-08-12T00:39:48.733Z,9.757440
2022-08-12T00:40:48.603Z,9.757442
2022-08-12T00:41:48.641Z,9.757413
2022-08-12T00:42:48.591Z,9.757430
2022-08-12T00:43:48.586Z,9.757292
2022-08-12T00:44:48.586Z,9.757480
2022-08-12T00:45:48.575Z,9.757470
2022-08-12T00:47:25.024Z,9.757319
2022-08-12T00:47:49.553Z,9.757497
2022-08-12T00:48:48.548Z,9.757622
2022-08-12T00:49:50.368Z,9.757551
2022-08-12T00:50:48.531Z,9.757510
2022-08-12T00:51:48.523Z,9.757528
2022-08-12T00:52:48.540Z,9.757590
2022-08-12T00:53:48.496Z,9.757620
2022-08-12T00:54:48.493Z,9.757502
2022-08-12T00:55:48.489Z,9.757668
2022-08-12T00:56:48.466Z,9.757815
2022-08-12T00:57:48.529Z,9.757891
2022-08-12T00:58:48.458Z,9.757761
2022-08-12T00:59:48.450Z,9.757690
2022-08-12T01:00:48.454Z,9.757597
2022-08-12T01:02:00.974Z,9.757606
2022-08-12T01:02:49.457Z,9.757685
2022-08-12T01:03:48.420Z,9.757647
2022-08-12T01:04:48.403Z,9.757525
2022-08-12T01:05:48.409Z,9.757539
2022-08-12T01:06:50.918Z,9.757451
2022-08-12T01:07:49.409Z,9.757629
2022-08-12T01:08:48.365Z,9.757695
2022-08-12T01:09:48.368Z,9.757672
2022-08-12T01:10:48.357Z,9.757705
2022-08-12T01:11:48.341Z,9.757875
2022-08-12T01:12:48.359Z,9.757684
2022-08-12T01:13:48.332Z,9.757535
2022-08-12T01:14:48.322Z,9.757615
2022-08-12T01:15:48.316Z,9.757346
2022-08-12T01:16:48.302Z,9.757521
2022-08-12T01:17:48.321Z,9.757559
2022-08-12T01:18:48.287Z,9.757576
2022-08-12T01:19:49.270Z,9.757561
2022-08-12T01:20:48.276Z,9.757607
2022-08-12T01:21:48.285Z,9.757603
2022-08-12T01:22:48.279Z,9.757478
2022-08-12T01:23:48.251Z,9.757442
2022-08-12T01:24:48.252Z,9.757788
2022-08-12T01:25:56.146Z,9.757707
2022-08-12T01:26:49.222Z,9.757628
2022-08-12T01:27:48.253Z,9.757603
2022-08-12T01:28:48.206Z,9.757509
2022-08-12T01:29:48.200Z,9.757483
2022-08-12T01:30:48.195Z,9.757508
2022-08-12T01:31:48.179Z,9.757650
2022-08-12T01:32:48.543Z,9.757463
2022-08-12T01:33:48.165Z,9.757561
2022-08-12T01:34:48.155Z,9.757466
2022-08-12T01:35:57.873Z,9.757369
2022-08-12T01:36:49.134Z,9.757525
2022-08-12T01:37:48.127Z,9.757552
2022-08-12T01:38:48.154Z,9.757747
2022-08-12T01:40:34.914Z,9.757567
2022-08-12T01:40:49.222Z,9.757558
2022-08-12T01:41:53.576Z,9.757525
2022-08-12T01:42:49.088Z,9.757562
2022-08-12T01:43:48.113Z,9.757545
2022-08-12T01:44:48.075Z,9.757567
2022-08-12T01:45:48.065Z,9.757525
2022-08-12T01:46:48.141Z,9.757422
2022-08-12T01:47:48.050Z,9.757486
2022-08-12T01:48:48.062Z,9.757485
2022-08-12T01:49:48.031Z,9.757481
2022-08-12T01:50:48.021Z,9.757534
2022-08-12T01:52:21.551Z,9.757476
2022-08-12T01:52:49.000Z,9.757402
2022-08-12T01:53:48.728Z,9.757435
2022-08-12T01:54:47.989Z,9.757545
2022-08-12T01:55:47.976Z,9.757466
2022-08-12T01:56:47.963Z,9.757459
2022-08-12T01:57:59.656Z,9.757439
2022-08-12T01:58:48.987Z,9.757427
2022-08-12T01:59:47.941Z,9.757432
2022-08-12T02:00:54.960Z,9.757503
2022-08-12T02:01:48.999Z,9.757552
2022-08-12T02:02:47.920Z,9.757535
2022-08-12T02:03:47.936Z,9.757418
2022-08-12T02:04:47.896Z,9.757435
2022-08-12T02:05:47.885Z,9.757469
2022-08-12T02:06:47.884Z,9.757558
2022-08-12T02:07:47.870Z,9.757914
2022-08-12T02:08:47.897Z,9.757912
2022-08-12T02:09:47.859Z,9.757697
2022-08-12T02:10:49.958Z,9.757635
2022-08-12T02:11:47.839Z,9.757573
2022-08-12T02:12:47.870Z,9.757579
2022-08-12T02:13:49.321Z,9.757508
2022-08-12T02:14:47.818Z,9.757577
2022-08-12T02:15:47.807Z,9.757680
2022-08-12T02:16:47.801Z,9.757611
2022-08-12T02:17:56.286Z,9.757693
2022-08-12T02:18:48.811Z,9.757756
2022-08-12T02:19:47.784Z,9.757584
2022-08-12T02:20:52.462Z,9.757488
2022-08-12T02:21:48.767Z,9.757478
2022-08-12T02:22:47.769Z,9.757540
2022-08-12T02:23:47.769Z,9.757555
2022-08-12T02:24:47.729Z,9.757615
2022-08-12T02:25:47.725Z,9.757605
2022-08-12T02:26:47.717Z,9.757599
2022-08-12T02:27:47.720Z,9.757566
2022-08-12T02:28:47.724Z,9.757489
2022-08-12T02:29:47.684Z,9.757441
2022-08-12T02:30:47.675Z,9.757523
2022-08-12T02:31:47.727Z,9.757620
2022-08-12T02:32:47.694Z,9.757446
2022-08-12T02:33:47.767Z,9.757397
2022-08-12T02:34:47.656Z,9.757391
2022-08-12T02:35:47.680Z,9.757430
2022-08-12T02:36:47.648Z,9.757433
2022-08-12T02:37:47.675Z,9.757456
2022-08-12T02:38:47.644Z,9.757492
2022-08-12T02:39:47.641Z,9.757383
2022-08-12T02:40:47.585Z,9.757457
2022-08-12T02:41:47.585Z,9.757565
2022-08-12T02:42:47.638Z,9.757468
2022-08-12T02:43:47.594Z,9.757517
2022-08-12T02:44:47.571Z,9.757487
2022-08-12T02:45:47.561Z,9.757441
2022-08-12T02:46:47.540Z,9.757483
2022-08-12T02:47:57.143Z,9.757446
2022-08-12T02:48:48.550Z,9.757433
2022-08-12T02:49:47.568Z,9.757463
2022-08-12T02:50:47.528Z,9.757457
2022-08-12T02:51:47.526Z,9.757481
2022-08-12T02:52:47.490Z,9.757379
2022-08-12T02:54:03.320Z,9.757468
2022-08-12T02:54:48.505Z,9.757435
2022-08-12T02:55:47.473Z,9.757463
2022-08-12T02:56:50.770Z,9.757505
2022-08-12T02:57:47.454Z,9.757450
2022-08-12T02:58:47.479Z,9.757457
2022-08-12T02:59:47.431Z,9.757488
2022-08-12T03:00:47.530Z,9.757464
2022-08-12T03:01:47.602Z,9.757486
2022-08-12T03:02:47.402Z,9.757425
2022-08-12T03:03:47.420Z,9.757462
2022-08-12T03:04:47.393Z,9.757512
2022-08-12T03:05:47.385Z,9.757492
2022-08-12T03:06:47.390Z,9.757394
2022-08-12T03:07:59.840Z,9.757405
2022-08-12T03:08:51.832Z,9.757572
2022-08-12T03:10:05.348Z,9.757679
2022-08-12T03:10:48.411Z,9.757633
2022-08-12T03:11:48.955Z,9.757482
2022-08-12T03:12:49.318Z,9.757435
2022-08-12T03:13:47.346Z,9.757509
2022-08-12T03:14:47.317Z,9.757583
2022-08-12T03:15:47.304Z,9.757519
2022-08-12T03:16:47.284Z,9.757665
2022-08-12T03:17:47.306Z,9.757668
2022-08-12T03:18:48.325Z,9.757823
2022-08-12T03:20:08.814Z,9.757623
2022-08-12T03:20:48.257Z,9.757603
2022-08-12T03:21:54.703Z,9.757599
2022-08-12T03:22:48.260Z,9.757654
2022-08-12T03:23:47.325Z,9.757681
2022-08-12T03:24:47.225Z,9.758114
2022-08-12T03:25:47.229Z,9.757897
2022-08-12T03:26:47.204Z,9.756742
2022-08-12T03:27:47.230Z,9.757298
2022-08-12T03:28:47.320Z,9.757465
2022-08-12T03:29:50.035Z,9.757472
2022-08-12T03:30:47.177Z,9.757692
2022-08-12T03:31:47.164Z,9.757462
2022-08-12T03:32:47.406Z,9.757509
2022-08-12T03:34:02.385Z,9.757534
2022-08-12T03:34:48.182Z,9.757491
2022-08-12T03:35:47.154Z,9.757732
2022-08-12T03:36:47.167Z,9.757642
2022-08-12T03:37:47.100Z,9.757842
2022-08-12T03:38:47.190Z,9.757746
2022-08-12T03:39:47.219Z,9.757745
2022-08-12T03:40:47.111Z,9.758067
2022-08-12T03:41:47.099Z,9.757792
2022-08-12T03:42:47.088Z,9.757733
2022-08-12T03:43:47.095Z,9.757700
2022-08-12T03:44:47.135Z,9.757607
2022-08-12T03:45:52.338Z,9.757615
2022-08-12T03:46:48.055Z,9.757760
2022-08-12T03:47:47.035Z,9.757760
2022-08-12T03:48:47.032Z,9.757752
2022-08-12T03:49:47.052Z,9.757434
2022-08-12T03:50:47.057Z,9.757465
2022-08-12T03:51:46.993Z,9.757669
2022-08-12T03:52:46.979Z,9.757553
2022-08-12T03:53:46.997Z,9.757518
2022-08-12T03:54:47.053Z,9.757506
2022-08-12T03:55:46.956Z,9.757568
2022-08-12T03:56:46.938Z,9.757846
2022-08-12T03:57:48.566Z,9.757585
2022-08-12T03:58:46.925Z,9.757716
2022-08-12T03:59:46.951Z,9.757922
2022-08-12T04:00:47.010Z,9.757658
2022-08-12T04:01:46.895Z,9.757463
2022-08-12T04:02:47.896Z,9.757587
2022-08-12T04:03:46.888Z,9.757918
2022-08-12T04:04:46.910Z,9.757900
2022-08-12T04:05:54.698Z,9.757575
2022-08-12T04:06:47.863Z,9.757541
2022-08-12T04:07:56.340Z,9.757308
2022-08-12T04:08:47.847Z,9.757612
2022-08-12T04:09:46.859Z,9.757591
2022-08-12T04:10:46.832Z,9.757563
2022-08-12T04:11:47.281Z,9.757689
2022-08-12T04:12:46.813Z,9.757723
2022-08-12T04:13:46.800Z,9.757774
2022-08-12T04:14:46.823Z,9.757683
2022-08-12T04:15:46.780Z,9.757697
2022-08-12T04:16:46.776Z,9.757704
2022-08-12T04:18:07.329Z,9.757674
2022-08-12T04:18:47.760Z,9.757579
2022-08-12T04:19:46.779Z,9.757820
2022-08-12T04:20:46.740Z,9.757690
2022-08-12T04:22:02.180Z,9.757626
2022-08-12T04:22:47.716Z,9.757855
2022-08-12T04:23:48.681Z,9.757918
2022-08-12T04:24:50.530Z,9.757924
2022-08-12T04:25:46.701Z,9.757933
2022-08-12T04:26:46.689Z,9.757874
2022-08-12T04:27:46.690Z,9.757753
2022-08-12T04:28:46.685Z,9.757318
2022-08-12T04:30:21.193Z,9.757350
2022-08-12T04:30:47.656Z,9.757533
2022-08-12T04:31:46.654Z,9.757519
2022-08-12T04:32:46.813Z,9.757550
2022-08-12T04:33:47.634Z,9.757546
2022-08-12T04:34:46.648Z,9.757317
2022-08-12T04:35:46.619Z,9.757546
2022-08-12T04:36:46.611Z,9.757557
2022-08-12T04:37:58.094Z,9.757529
2022-08-12T04:38:47.582Z,9.757524
2022-08-12T04:39:46.665Z,9.757511
2022-08-12T04:40:46.573Z,9.757485
2022-08-12T04:41:56.067Z,9.757464
2022-08-12T04:42:47.554Z,9.757524
2022-08-12T04:44:00.206Z,9.757442
2022-08-12T04:44:47.594Z,9.757392
2022-08-12T04:45:46.531Z,9.757490
2022-08-12T04:46:46.514Z,9.757461
2022-08-12T04:47:46.516Z,9.757480
2022-08-12T04:48:46.514Z,9.757454
2022-08-12T04:49:46.530Z,9.757476
2022-08-12T04:50:46.491Z,9.757483
2022-08-12T04:51:57.597Z,9.757549
2022-08-12T04:52:47.467Z,9.757541
2022-08-12T04:53:46.463Z,9.757547
2022-08-12T04:54:46.486Z,9.757526
2022-08-12T04:55:46.459Z,9.757506
2022-08-12T04:57:04.887Z,9.757573
2022-08-12T04:57:47.440Z,9.757514
2022-08-12T04:58:50.628Z,9.757500
2022-08-12T04:59:49.051Z,9.757542
2022-08-12T05:00:46.423Z,9.757370
2022-08-12T05:01:46.393Z,9.757208
2022-08-12T05:02:46.460Z,9.757421
2022-08-12T05:03:48.348Z,9.757496
2022-08-12T05:04:46.427Z,9.757605
2022-08-12T05:05:46.380Z,9.757408
2022-08-12T05:06:46.366Z,9.757380
2022-08-12T05:07:53.845Z,9.757445
2022-08-12T05:08:47.332Z,9.757479
2022-08-12T05:10:00.204Z,9.757461
2022-08-12T05:10:47.337Z,9.757479
2022-08-12T05:11:53.727Z,9.757446
2022-08-12T05:12:47.383Z,9.757475
2022-08-12T05:13:46.305Z,9.757440
2022-08-12T05:14:46.337Z,9.757360
2022-08-12T05:16:05.178Z,9.757437
2022-08-12T05:16:48.278Z,9.757481
2022-08-12T05:17:46.263Z,9.757486
2022-08-12T05:18:46.253Z,9.757491
2022-08-12T05:19:46.271Z,9.757560
2022-08-12T05:20:46.234Z,9.757511
2022-08-12T05:21:46.239Z,9.757458
2022-08-12T05:22:46.220Z,9.757456
2022-08-12T05:23:46.222Z,9.757821
2022-08-12T05:24:46.234Z,9.757649
2022-08-12T05:25:46.195Z,9.757528
2022-08-12T05:26:46.185Z,9.757399
2022-08-12T05:27:55.505Z,9.757504
2022-08-12T05:28:47.165Z,9.757425
2022-08-12T05:30:07.198Z,9.757580
2022-08-12T05:30:47.149Z,9.757303
2022-08-12T05:31:48.381Z,9.757435
2022-08-12T05:32:46.137Z,9.757504
2022-08-12T05:33:46.127Z,9.757512
2022-08-12T05:34:46.152Z,9.757334
2022-08-12T05:35:46.115Z,9.757557
2022-08-12T05:36:46.106Z,9.757523
2022-08-12T05:37:46.099Z,9.757486
2022-08-12T05:38:46.097Z,9.757587
2022-08-12T05:39:46.130Z,9.757481
2022-08-12T05:40:46.068Z,9.757426
2022-08-12T05:41:46.056Z,9.757433
2022-08-12T05:42:46.399Z,9.757505
2022-08-12T05:43:46.050Z,9.757499
2022-08-12T05:44:46.067Z,9.757444
2022-08-12T05:45:46.023Z,9.757570
2022-08-12T05:46:46.020Z,9.757602
2022-08-12T05:47:53.599Z,9.757674
2022-08-12T05:48:46.999Z,9.757274
2022-08-12T05:49:46.025Z,9.757315
2022-08-12T05:50:45.986Z,9.757446
2022-08-12T05:51:45.973Z,9.757659
2022-08-12T05:52:45.964Z,9.757792
2022-08-12T05:53:45.958Z,9.757614
2022-08-12T05:54:56.968Z,9.757415
2022-08-12T05:55:47.944Z,9.757448
2022-08-12T05:56:45.933Z,9.757470
2022-08-12T05:57:45.958Z,9.757340
2022-08-12T05:58:45.930Z,9.757439
2022-08-12T05:59:45.913Z,9.757472
2022-08-12T06:00:45.940Z,9.757505
2022-08-12T06:02:11.291Z,9.757405
2022-08-12T06:02:46.955Z,9.757443
2022-08-12T06:03:45.879Z,9.757522
2022-08-12T06:04:45.881Z,9.757463
2022-08-12T06:05:55.022Z,9.757502
2022-08-12T06:06:46.848Z,9.757458
2022-08-12T06:08:00.549Z,9.757552
2022-08-12T06:08:46.833Z,9.757524
2022-08-12T06:09:45.832Z,9.757327
2022-08-12T06:10:45.842Z,9.757683
2022-08-12T06:12:04.739Z,9.757512
2022-08-12T06:12:46.790Z,9.757468
2022-08-12T06:13:53.213Z,9.757424
2022-08-12T06:14:46.787Z,9.757234
2022-08-12T06:15:45.804Z,9.757219
2022-08-12T06:16:45.771Z,9.757346
2022-08-12T06:17:45.849Z,9.757410
2022-08-12T06:18:45.745Z,9.757529
2022-08-12T06:20:27.306Z,9.757524
2022-08-12T06:20:46.775Z,9.757421
2022-08-12T06:21:45.717Z,9.757389
2022-08-12T06:22:45.708Z,9.757462
2022-08-12T06:23:45.700Z,9.757492
2022-08-12T06:24:45.704Z,9.757583
2022-08-12T06:25:45.723Z,9.757482
2022-08-12T06:26:45.682Z,9.757397
2022-08-12T06:28:06.723Z,9.757393
2022-08-12T06:28:46.659Z,9.757338
2022-08-12T06:30:09.585Z,9.757281
2022-08-12T06:31:08.189Z,9.757225
2022-08-12T06:31:47.654Z,9.757372
2022-08-12T06:33:04.354Z,9.757404
2022-08-12T06:33:55.333Z,9.757370
2022-08-12T06:35:25.358Z,9.758127
2022-08-12T06:35:49.301Z,9.757808
2022-08-12T06:36:45.598Z,9.757725
2022-08-12T06:37:45.589Z,9.757565
2022-08-12T06:38:46.577Z,9.757451
2022-08-12T06:39:45.648Z,9.757398
2022-08-12T06:40:45.597Z,9.757513
2022-08-12T06:42:05.204Z,9.757396
2022-08-12T06:42:46.940Z,9.757315
2022-08-12T06:44:05.889Z,9.757512
2022-08-12T06:44:46.537Z,9.757485
2022-08-12T06:45:46.812Z,9.757471
2022-08-12T06:46:45.514Z,9.757393
2022-08-12T06:47:45.509Z,9.757412
2022-08-12T06:48:45.497Z,9.757381
2022-08-12T06:49:45.496Z,9.757332
2022-08-12T06:50:45.778Z,9.757358
2022-08-12T06:51:56.661Z,9.757448
2022-08-12T06:52:46.584Z,9.757730
2022-08-12T06:53:45.681Z,9.757461
2022-08-12T06:54:45.457Z,9.757410
2022-08-12T06:55:58.294Z,9.757686
2022-08-12T06:57:03.454Z,9.757417
2022-08-12T06:58:08.248Z,9.757268
2022-08-12T06:58:46.417Z,9.757440
2022-08-12T06:59:45.418Z,9.757383
2022-08-12T07:00:45.461Z,9.757398
2022-08-12T07:01:51.097Z,9.757433
2022-08-12T07:02:46.380Z,9.757179
2022-08-12T07:03:45.382Z,9.757551
2022-08-12T07:04:45.380Z,9.757565
2022-08-12T07:05:45.364Z,9.757470
2022-08-12T07:06:45.389Z,9.757503
2022-08-12T07:07:45.341Z,9.757428
2022-08-12T07:08:45.350Z,9.757228
2022-08-12T07:10:06.705Z,9.757342
2022-08-12T07:10:46.327Z,9.757398
2022-08-12T07:11:47.283Z,9.757369
2022-08-12T07:12:46.325Z,9.757343
2022-08-12T07:14:12.457Z,9.757328
2022-08-12T07:14:48.925Z,9.757326
2022-08-12T07:15:46.284Z,9.757250
2022-08-12T07:16:45.301Z,9.757411
2022-08-12T07:17:45.271Z,9.757370
2022-08-12T07:18:45.264Z,9.757493
2022-08-12T07:19:45.617Z,9.757459
2022-08-12T07:20:53.345Z,9.757461
2022-08-12T07:21:59.981Z,9.757339
2022-08-12T07:22:46.229Z,9.757266
2022-08-12T07:23:45.220Z,9.757338
2022-08-12T07:24:45.212Z,9.757415
2022-08-12T07:25:45.217Z,9.757389
2022-08-12T07:26:45.217Z,9.757438
2022-08-12T07:27:45.233Z,9.757456
2022-08-12T07:28:45.174Z,9.757551
2022-08-12T07:30:03.862Z,9.757537
2022-08-12T07:30:46.158Z,9.757564
2022-08-12T07:31:45.201Z,9.757490
2022-08-12T07:32:45.149Z,9.757475
2022-08-12T07:33:45.136Z,9.757390
2022-08-12T07:34:45.141Z,9.757538
2022-08-12T07:35:45.106Z,9.757521
2022-08-12T07:36:45.138Z,9.757452
2022-08-12T07:37:45.106Z,9.757481
2022-08-12T07:38:45.093Z,9.757512
2022-08-12T07:39:50.719Z,9.757358
2022-08-12T07:40:46.078Z,9.757356
2022-08-12T07:41:45.101Z,9.757318
2022-08-12T07:42:45.061Z,9.757436
2022-08-12T07:43:45.055Z,9.757468
2022-08-12T07:44:45.042Z,9.757494
2022-08-12T07:45:45.043Z,9.757446
2022-08-12T07:46:45.064Z,9.757421
2022-08-12T07:47:45.024Z,9.757351
2022-08-12T07:48:45.017Z,9.757452
2022-08-12T07:50:04.558Z,9.757181
2022-08-12T07:50:46.000Z,9.757371
2022-08-12T07:51:45.027Z,9.757422
2022-08-12T07:52:44.981Z,9.757503
2022-08-12T07:54:00.203Z,9.757658
2022-08-12T07:54:45.985Z,9.757694
2022-08-12T07:55:44.954Z,9.757536
2022-08-12T07:56:44.985Z,9.757502
2022-08-12T07:57:44.947Z,9.757458
2022-08-12T07:58:47.154Z,9.757385
2022-08-12T07:59:45.938Z,9.757359
2022-08-12T08:00:44.918Z,9.757458
2022-08-12T08:01:45.004Z,9.757541
2022-08-12T08:02:44.910Z,9.757371
2022-08-12T08:03:47.551Z,9.757459
2022-08-12T08:04:44.904Z,9.757438
2022-08-12T08:05:44.894Z,9.757372
2022-08-12T08:06:44.907Z,9.757346
2022-08-12T08:07:44.869Z,9.757252
2022-08-12T08:08:44.872Z,9.757291
2022-08-12T08:09:44.858Z,9.757389
2022-08-12T08:10:44.861Z,9.757355
2022-08-12T08:11:44.882Z,9.757423
2022-08-12T08:12:44.845Z,9.757461
2022-08-12T08:13:44.828Z,9.757581
2022-08-12T08:14:44.822Z,9.757438
2022-08-12T08:16:02.412Z,9.757531
2022-08-12T08:16:46.852Z,9.757574
2022-08-12T08:17:44.802Z,9.757571
2022-08-12T08:18:44.809Z,9.757554
2022-08-12T08:20:03.586Z,9.757699
2022-08-12T08:20:45.788Z,9.757957
2022-08-12T08:21:44.813Z,9.757595
2022-08-12T08:22:44.864Z,9.757735
2022-08-12T08:23:46.165Z,9.757663
2022-08-12T08:24:44.755Z,9.757577
2022-08-12T08:25:44.746Z,9.757614
2022-08-12T08:26:44.757Z,9.757556
2022-08-12T08:27:44.776Z,9.757393
2022-08-12T08:28:44.726Z,9.757257
2022-08-12T08:29:44.725Z,9.757174
2022-08-12T08:30:44.737Z,9.757327
2022-08-12T08:31:45.552Z,9.757709
2022-08-12T08:32:45.720Z,9.758031
2022-08-12T08:34:05.227Z,9.758012
2022-08-12T08:34:54.228Z,9.757666
2022-08-12T08:35:47.769Z,9.757579
2022-08-12T08:36:44.722Z,9.757445
2022-08-12T08:37:44.687Z,9.757157
2022-08-12T08:38:44.648Z,9.757307
2022-08-12T08:39:45.652Z,9.757603
2022-08-12T08:40:44.634Z,9.757574
2022-08-12T08:42:19.111Z,9.757751
2022-08-12T08:42:50.806Z,9.757681
2022-08-12T08:43:46.662Z,9.757747
2022-08-12T08:44:44.615Z,9.757738
2022-08-12T08:45:44.607Z,9.757575
2022-08-12T08:46:44.708Z,9.757606
2022-08-12T08:47:44.626Z,9.757663
2022-08-12T08:48:44.584Z,9.757600
2022-08-12T08:49:44.574Z,9.757874
2022-08-12T08:50:44.574Z,9.757753
2022-08-12T08:51:44.580Z,9.757611
2022-08-12T08:52:44.587Z,9.757559
2022-08-12T08:53:44.585Z,9.757489
2022-08-12T08:54:45.540Z,9.757485
2022-08-12T08:56:04.131Z,9.757612
2022-08-12T08:56:46.621Z,9.757649
2022-08-12T08:57:44.860Z,9.757501
2022-08-12T08:58:45.507Z,9.757586
2022-08-12T08:59:45.507Z,9.757506
2022-08-12T09:00:49.434Z,9.757244
2022-08-12T09:01:44.765Z,9.757385
2022-08-12T09:02:49.196Z,9.757437
2022-08-12T09:05:07.306Z,9.757325
2022-08-12T09:05:13.906Z,9.757374
2022-08-12T09:06:02.650Z,9.757451
2022-08-12T09:06:53.819Z,9.757583
2022-08-12T09:07:58.946Z,9.757528
2022-08-12T09:08:46.472Z,9.757434
2022-08-12T09:10:02.762Z,9.757459
2022-08-12T09:10:45.830Z,9.757402
2022-08-12T09:12:10.603Z,9.757449
2022-08-12T09:12:45.415Z,9.757442
2022-08-12T09:14:12.558Z,9.757606
2022-08-12T09:16:45.412Z,9.757644
2022-08-12T09:17:44.381Z,9.757474
2022-08-12T09:18:44.399Z,9.757506
2022-08-12T09:19:44.363Z,9.757421
2022-08-12T09:20:44.365Z,9.757438
2022-08-12T09:21:54.600Z,9.757380
2022-08-12T09:22:49.063Z,9.757297
2022-08-12T09:23:57.243Z,9.757318
2022-08-12T09:24:45.327Z,9.757583
2022-08-12T09:25:44.332Z,9.757583
2022-08-12T09:30:10.971Z,9.757477
2022-08-12T09:30:45.296Z,9.757601
2022-08-12T09:32:07.856Z,9.757379
2022-08-12T09:33:01.498Z,9.757425
2022-08-12T09:34:25.212Z,9.757280
2022-08-12T09:34:50.818Z,9.757567
2022-08-12T09:35:46.218Z,9.757561
2022-08-12T09:37:00.742Z,9.757587
2022-08-12T09:37:58.241Z,9.757571
2022-08-12T09:39:00.012Z,9.757673
2022-08-12T09:40:01.828Z,9.757704
2022-08-12T09:40:57.090Z,9.757578
2022-08-12T09:42:08.449Z,9.757512
2022-08-12T09:43:04.816Z,9.757451
2022-08-12T09:43:53.339Z,9.757455
2022-08-12T09:44:45.230Z,9.757261
2022-08-12T09:46:06.559Z,9.757366
2022-08-12T09:46:45.328Z,9.757478
2022-08-12T09:47:45.177Z,9.757612
2022-08-12T09:48:56.470Z,9.757409
2022-08-12T09:49:45.153Z,9.757405
2022-08-12T09:50:50.640Z,9.757503
2022-08-12T09:51:45.157Z,9.757547
2022-08-12T09:52:44.325Z,9.757644
2022-08-12T09:53:44.185Z,9.757482
2022-08-12T09:54:44.130Z,9.757415
2022-08-12T09:56:56.914Z,9.757462
2022-08-12T09:57:01.894Z,9.757462
2022-08-12T09:58:46.234Z,9.757484
2022-08-12T09:59:00.961Z,9.757506
2022-08-12T10:00:15.014Z,9.757431
2022-08-12T10:00:52.030Z,9.757468
2022-08-12T10:02:43.021Z,9.757432
2022-08-12T10:02:50.071Z,9.757497
2022-08-12T10:04:02.968Z,9.757509
2022-08-12T10:04:51.587Z,9.757819
2022-08-12T10:06:19.886Z,9.757817
2022-08-12T10:06:54.201Z,9.757805
2022-08-12T10:07:45.022Z,9.757711
2022-08-12T10:08:44.017Z,9.757645
2022-08-12T10:09:58.432Z,9.757850
2022-08-12T10:10:45.028Z,9.757772
2022-08-12T10:12:10.148Z,9.757635
2022-08-12T10:13:06.663Z,9.757489
2022-08-12T10:13:45.016Z,9.757529
2022-08-12T10:14:49.986Z,9.757504
2022-08-12T10:16:02.773Z,9.757494
2022-08-12T10:16:44.983Z,9.757392
2022-08-12T10:18:05.948Z,9.757279
2022-08-12T10:18:51.226Z,9.757258
2022-08-12T10:19:51.618Z,9.757325
2022-08-12T10:20:44.944Z,9.757465
2022-08-12T10:21:43.921Z,9.757408
2022-08-12T10:22:43.931Z,9.757420
2022-08-12T10:23:45.933Z,9.757457
2022-08-12T10:24:43.947Z,9.757448
2022-08-12T10:26:34.686Z,9.757476
2022-08-12T10:26:45.027Z,9.757456
2022-08-12T10:28:03.636Z,9.757430
2022-08-12T10:29:01.804Z,9.757393
2022-08-12T10:30:03.908Z,9.757390
2022-08-12T10:30:58.099Z,9.757447
2022-08-12T10:32:19.458Z,9.757455
2022-08-12T10:32:56.179Z,9.757374
2022-08-12T10:34:04.903Z,9.757404
2022-08-12T10:34:53.128Z,9.757401
2022-08-12T10:35:44.814Z,9.757334
2022-08-12T10:36:43.805Z,9.757466
2022-08-12T10:38:37.134Z,9.757438
2022-08-12T10:38:44.803Z,9.757451
2022-08-12T10:40:00.801Z,9.757445
2022-08-12T10:40:44.830Z,9.757431
2022-08-12T10:41:58.310Z,9.757410
2022-08-12T10:42:44.924Z,9.757401
2022-08-12T10:43:55.922Z,9.757305
2022-08-12T10:44:44.770Z,9.757305
2022-08-12T10:45:43.761Z,9.757400
2022-08-12T10:46:43.744Z,9.757442
2022-08-12T10:48:07.795Z,9.757411
2022-08-12T10:48:44.764Z,9.757382
2022-08-12T10:50:02.381Z,9.757481
2022-08-12T10:51:00.347Z,9.757390
2022-08-12T10:52:03.180Z,9.757431
2022-08-12T10:52:45.094Z,9.757448
2022-08-12T10:53:46.316Z,9.757408
2022-08-12T10:54:43.691Z,9.757341
2022-08-12T10:55:44.696Z,9.757401
2022-08-12T10:56:43.673Z,9.757470
2022-08-12T10:58:13.423Z,9.757475
2022-08-12T10:58:46.327Z,9.757471
2022-08-12T11:00:30.697Z,9.757429
2022-08-12T11:00:55.039Z,9.757432
2022-08-12T11:04:17.079Z,9.757442
2022-08-12T11:04:19.204Z,9.757432
2022-08-12T11:04:25.226Z,9.757479
2022-08-12T11:04:49.086Z,9.757421
2022-08-12T11:07:05.820Z,9.757418
2022-08-12T11:07:07.544Z,9.757444
2022-08-12T11:08:37.583Z,9.757413
2022-08-12T11:08:46.492Z,9.757427
2022-08-12T11:10:00.134Z,9.757483
2022-08-12T11:10:45.765Z,9.757401
2022-08-12T11:12:35.370Z,9.757400
2022-08-12T11:12:58.496Z,9.757383
2022-08-12T11:13:48.324Z,9.757327
2022-08-12T11:14:49.438Z,9.757420
2022-08-12T11:16:19.419Z,9.757478
2022-08-12T11:17:06.504Z,9.757442
2022-08-12T11:17:53.712Z,9.757513
2022-08-12T11:18:44.502Z,9.757560
2022-08-12T11:19:43.534Z,9.757634
2022-08-12T11:20:43.501Z,9.757464
2022-08-12T11:21:57.794Z,9.757404
2022-08-12T11:22:57.759Z,9.757393
2022-08-12T11:23:44.469Z,9.757421
2022-08-12T11:24:51.685Z,9.757609
2022-08-12T11:25:57.972Z,9.757465
2022-08-12T11:26:44.476Z,9.757452
2022-08-12T11:27:43.706Z,9.757727
2022-08-12T11:28:43.455Z,9.757484
2022-08-12T11:30:02.046Z,9.757428
2022-08-12T11:30:44.432Z,9.757457
2022-08-12T11:32:01.970Z,9.757630
2022-08-12T11:32:44.413Z,9.757436
2022-08-12T11:34:05.475Z,9.757441
2022-08-12T11:34:53.194Z,9.757524
2022-08-12T11:35:44.395Z,9.757484
2022-08-12T11:36:44.354Z,9.757454
2022-08-12T11:37:55.875Z,9.757558
2022-08-12T11:38:50.570Z,9.757536
2022-08-12T11:40:44.322Z,9.757596
2022-08-12T11:41:43.321Z,9.757604
2022-08-12T11:42:46.943Z,9.757563
2022-08-12T11:43:50.641Z,9.757672
2022-08-12T11:44:44.514Z,9.757812
2022-08-12T11:45:46.910Z,9.757727
2022-08-12T11:46:43.291Z,9.757676
2022-08-12T11:47:43.289Z,9.757644
2022-08-12T11:48:52.387Z,9.757652
2022-08-12T11:49:45.756Z,9.757609
2022-08-12T11:50:44.336Z,9.757577